createdAt,value
2022-09-24T00:01:16.712Z,98081.97
2022-09-24T00:03:48.469Z,98073.34
2022-09-24T00:06:19.218Z,98069.03
2022-09-24T00:08:49.764Z,98062.00
2022-09-24T00:11:22.257Z,98057.25
2022-09-24T00:13:52.862Z,98056.13
2022-09-24T00:16:25.873Z,98050.63
2022-09-24T00:18:55.782Z,98051.00
2022-09-24T00:21:27.773Z,98059.25
2022-09-24T00:23:59.089Z,98053.78
2022-09-24T00:26:43.828Z,98050.63
2022-09-24T00:29:15.443Z,98040.38
2022-09-24T00:31:45.369Z,98041.19
2022-09-24T00:34:15.056Z,98036.09
2022-09-24T00:36:46.973Z,98028.28
2022-09-24T00:39:17.050Z,98026.34
2022-09-24T00:41:49.987Z,98030.28
2022-09-24T00:44:50.972Z,98027.53
2022-09-24T00:47:36.526Z,98029.09
2022-09-24T00:50:16.067Z,98039.25
2022-09-24T00:52:50.235Z,98041.56
2022-09-24T00:55:21.519Z,98035.72
2022-09-24T00:57:56.357Z,98034.91
2022-09-24T01:00:26.833Z,98024.34
2022-09-24T01:03:02.702Z,98003.97
2022-09-24T01:05:32.940Z,98001.28
2022-09-24T01:08:02.621Z,97996.13
2022-09-24T01:10:51.814Z,98000.47
2022-09-24T01:13:43.381Z,97996.19
2022-09-24T01:16:22.781Z,97995.03
2022-09-24T01:18:58.172Z,97994.63
2022-09-24T01:21:35.179Z,97994.25
2022-09-24T01:24:24.462Z,97988.38
2022-09-24T01:27:10.726Z,97992.69
2022-09-24T01:30:01.694Z,97985.22
2022-09-24T01:32:37.598Z,97991.84
2022-09-24T01:35:15.873Z,97980.13
2022-09-24T01:37:52.187Z,97981.31
2022-09-24T01:40:24.893Z,97972.31
2022-09-24T01:42:56.266Z,97966.44
2022-09-24T01:45:32.191Z,97973.09
2022-09-24T01:48:03.621Z,97969.16
2022-09-24T01:50:37.756Z,97969.56
2022-09-24T01:53:12.172Z,97969.53
2022-09-24T01:55:48.299Z,97963.28
2022-09-24T01:58:21.718Z,97962.53
2022-09-24T02:01:01.199Z,97961.75
2022-09-24T02:03:34.664Z,97960.19
2022-09-24T02:06:08.186Z,97955.47
2022-09-24T02:08:44.325Z,97955.44
2022-09-24T02:11:16.108Z,97954.66
2022-09-24T02:13:50.263Z,97954.97
2022-09-24T02:16:27.649Z,97943.66
2022-09-24T02:19:00.867Z,97945.22
2022-09-24T02:21:33.742Z,97948.38
2022-09-24T02:24:10.171Z,97957.78
2022-09-24T02:26:39.866Z,97959.34
2022-09-24T02:29:09.764Z,97966.38
2022-09-24T02:31:46.102Z,97970.22
2022-09-24T02:34:25.830Z,97960.00
2022-09-24T02:36:58.095Z,97959.25
2022-09-24T02:39:28.199Z,97954.63
2022-09-24T02:41:58.541Z,97953.88
2022-09-24T02:44:29.277Z,97949.94
2022-09-24T02:47:01.616Z,97941.72
2022-09-24T02:49:31.915Z,97937.44
2022-09-24T02:52:01.854Z,97932.72
2022-09-24T02:54:31.625Z,97939.78
2022-09-24T02:57:01.256Z,97940.56
2022-09-24T02:59:30.908Z,97946.81
2022-09-24T03:02:03.338Z,97944.00
2022-09-24T03:04:35.920Z,97949.47
2022-09-24T03:07:05.790Z,97944.38
2022-09-24T03:09:35.479Z,97940.47
2022-09-24T03:12:05.585Z,97943.28
2022-09-24T03:14:35.230Z,97946.38
2022-09-24T03:17:07.532Z,97945.59
2022-09-24T03:19:37.300Z,97934.63
2022-09-24T03:22:07.063Z,97933.84
2022-09-24T03:24:36.763Z,97928.78
2022-09-24T03:27:06.753Z,97926.44
2022-09-24T03:29:48.873Z,97929.59
2022-09-24T03:32:21.634Z,97921.75
2022-09-24T03:34:51.280Z,97917.84
2022-09-24T03:37:21.092Z,97918.66
2022-09-24T03:39:50.737Z,97922.97
2022-09-24T03:42:20.362Z,97920.94
2022-09-24T03:44:50.014Z,97908.06
2022-09-24T03:47:22.255Z,97907.28
2022-09-24T03:49:53.520Z,97910.00
2022-09-24T03:52:23.267Z,97908.84
2022-09-24T03:54:53.584Z,97912.34
2022-09-24T03:57:23.245Z,97906.06
2022-09-24T03:59:54.171Z,97908.44
2022-09-24T04:02:26.457Z,97910.81
2022-09-24T04:04:56.135Z,97909.25
2022-09-24T04:07:25.798Z,97914.75
2022-09-24T04:09:55.452Z,97910.03
2022-09-24T04:12:25.184Z,97912.78
2022-09-24T04:14:54.844Z,97903.03
2022-09-24T04:17:31.445Z,97903.78
2022-09-24T04:20:01.213Z,97906.91
2022-09-24T04:22:31.092Z,97907.69
2022-09-24T04:25:00.780Z,97899.88
2022-09-24T04:27:31.298Z,97894.41
2022-09-24T04:30:01.102Z,97893.56
2022-09-24T04:32:33.330Z,97892.84
2022-09-24T04:35:07.408Z,97892.84
2022-09-24T04:37:37.697Z,97899.91
2022-09-24T04:40:12.755Z,97896.75
2022-09-24T04:42:43.352Z,97901.06
2022-09-24T04:45:14.667Z,97891.28
2022-09-24T04:47:46.977Z,97895.19
2022-09-24T04:50:16.820Z,97892.84
2022-09-24T04:52:46.744Z,97883.47
2022-09-24T04:55:16.811Z,97876.81
2022-09-24T04:57:46.422Z,97880.31
2022-09-24T05:00:19.729Z,97883.81
2022-09-24T05:02:59.015Z,97877.97
2022-09-24T05:05:29.372Z,97870.97
2022-09-24T05:07:59.266Z,97869.38
2022-09-24T05:10:29.650Z,97869.75
2022-09-24T05:12:59.237Z,97868.22
2022-09-24T05:15:29.229Z,97893.63
2022-09-24T05:18:01.752Z,97899.88
2022-09-24T05:20:32.215Z,97892.84
2022-09-24T05:23:01.856Z,97902.66
2022-09-24T05:25:31.560Z,97893.66
2022-09-24T05:27:58.638Z,97895.97
2022-09-24T05:30:28.347Z,97904.19
2022-09-24T05:32:58.244Z,97901.06
2022-09-24T05:35:30.451Z,97893.25
2022-09-24T05:38:00.098Z,97899.91
2022-09-24T05:40:51.021Z,97904.97
2022-09-24T05:43:22.317Z,97913.97
2022-09-24T05:45:52.818Z,97920.19
2022-09-24T05:48:22.446Z,97916.28
2022-09-24T05:50:55.668Z,97919.06
2022-09-24T05:53:25.823Z,97916.69
2022-09-24T05:55:55.677Z,97920.22
2022-09-24T05:58:25.383Z,97926.09
2022-09-24T06:00:55.077Z,97919.84
2022-09-24T06:03:24.907Z,97922.56
2022-09-24T06:05:59.745Z,97921.81
2022-09-24T06:08:29.485Z,97924.13
2022-09-24T06:11:02.606Z,97924.94
2022-09-24T06:13:33.821Z,97917.09
2022-09-24T06:16:04.338Z,97915.16
2022-09-24T06:18:36.428Z,97917.50
2022-09-24T06:21:11.528Z,97915.53
2022-09-24T06:23:42.567Z,97912.81
2022-09-24T06:26:14.946Z,97917.91
2022-09-24T06:28:45.053Z,97913.59
2022-09-24T06:31:14.985Z,97925.34
2022-09-24T06:33:44.678Z,97921.81
2022-09-24T06:36:17.125Z,97925.75
2022-09-24T06:38:46.820Z,97924.97
2022-09-24T06:41:16.548Z,97926.94
2022-09-24T06:43:46.224Z,97941.38
2022-09-24T06:46:16.209Z,97939.06
2022-09-24T06:48:45.818Z,97941.78
2022-09-24T06:51:18.223Z,97943.34
2022-09-24T06:53:47.931Z,97946.09
2022-09-24T06:56:17.848Z,97941.78
2022-09-24T06:58:47.558Z,97940.59
2022-09-24T07:01:17.415Z,97942.94
2022-09-24T07:03:47.226Z,97949.22
2022-09-24T07:06:19.665Z,97955.09
2022-09-24T07:08:53.827Z,97952.34
2022-09-24T07:11:23.713Z,97941.00
2022-09-24T07:13:54.965Z,97953.91
2022-09-24T07:16:24.786Z,97948.81
2022-09-24T07:18:54.459Z,97942.53
2022-09-24T07:21:26.829Z,97949.59
2022-09-24T07:23:58.750Z,97956.66
2022-09-24T07:26:28.619Z,97958.22
2022-09-24T07:28:58.389Z,97965.28
2022-09-24T07:31:28.176Z,97970.78
2022-09-24T07:33:57.985Z,97977.41
2022-09-24T07:36:31.238Z,97973.50
2022-09-24T07:39:01.425Z,97973.47
2022-09-24T07:41:34.076Z,97965.63
2022-09-24T07:44:06.249Z,97974.22
2022-09-24T07:46:36.003Z,97982.06
2022-09-24T07:49:06.240Z,97978.94
2022-09-24T07:51:38.628Z,97979.72
2022-09-24T07:54:08.662Z,97974.22
2022-09-24T07:56:38.307Z,97978.53
2022-09-24T07:59:11.342Z,97987.91
2022-09-24T08:01:41.108Z,97992.22
2022-09-24T08:04:11.172Z,97984.78
2022-09-24T08:06:47.414Z,97987.13
2022-09-24T08:09:18.567Z,97983.94
2022-09-24T08:11:48.491Z,97992.97
2022-09-24T08:14:18.400Z,97992.16
2022-09-24T08:16:48.108Z,97988.19
2022-09-24T08:19:17.788Z,97989.00
2022-09-24T08:21:50.452Z,97984.69
2022-09-24T08:24:20.122Z,97988.97
2022-09-24T08:26:49.761Z,97992.91
2022-09-24T08:29:19.552Z,97994.44
2022-09-24T08:31:49.321Z,97992.81
2022-09-24T08:34:19.069Z,97984.94
2022-09-24T08:36:51.282Z,97992.34
2022-09-24T08:39:21.162Z,97999.84
2022-09-24T08:41:57.296Z,97992.72
2022-09-24T08:44:46.087Z,98000.16
2022-09-24T08:47:25.977Z,98003.91
2022-09-24T08:50:10.259Z,98004.19
2022-09-24T08:52:54.437Z,98004.03
2022-09-24T08:55:33.040Z,98001.91
2022-09-24T08:58:17.781Z,97997.28
2022-09-24T09:00:54.531Z,97999.69
2022-09-24T09:03:33.273Z,97997.22
2022-09-24T09:06:06.860Z,98003.66
2022-09-24T09:09:06.235Z,97993.69
2022-09-24T09:11:38.487Z,98003.69
2022-09-24T09:14:15.449Z,98004.50
2022-09-24T09:16:52.256Z,98009.69
2022-09-24T09:19:29.264Z,98009.75
2022-09-24T09:22:04.119Z,98004.53
2022-09-24T09:24:44.787Z,98013.56
2022-09-24T09:27:17.057Z,97996.09
2022-09-24T09:29:48.769Z,97996.25
2022-09-24T09:32:35.137Z,98005.81
2022-09-24T09:35:13.633Z,98004.38
2022-09-24T09:37:50.010Z,97996.22
2022-09-24T09:40:39.164Z,98012.94
2022-09-24T09:43:13.995Z,98002.25
2022-09-24T09:45:50.627Z,97998.84
2022-09-24T09:48:22.474Z,98008.25
2022-09-24T09:50:55.126Z,97996.28
2022-09-24T09:53:26.557Z,98003.44
2022-09-24T09:56:01.352Z,97990.91
2022-09-24T09:58:33.807Z,97990.56
2022-09-24T10:01:09.911Z,97987.53
2022-09-24T10:03:51.110Z,97988.94
2022-09-24T10:06:27.541Z,97985.31
2022-09-24T10:08:57.666Z,97986.03
2022-09-24T10:11:30.039Z,97985.31
2022-09-24T10:14:05.525Z,97982.94
2022-09-24T10:16:40.883Z,97972.91
2022-09-24T10:19:18.884Z,97975.03
2022-09-24T10:21:48.735Z,97982.16
2022-09-24T10:24:21.507Z,97982.34
2022-09-24T10:26:54.677Z,97987.19
2022-09-24T10:29:40.435Z,97987.97
2022-09-24T10:32:18.231Z,97985.50
2022-09-24T10:34:58.593Z,97984.00
2022-09-24T10:37:29.363Z,97984.91
2022-09-24T10:40:02.662Z,97986.91
2022-09-24T10:42:34.884Z,97985.63
2022-09-24T10:45:06.165Z,97986.34
2022-09-24T10:47:44.144Z,97986.09
2022-09-24T10:50:33.904Z,97987.25
2022-09-24T10:53:09.745Z,97992.75
2022-09-24T10:55:58.035Z,97990.63
2022-09-24T10:58:47.498Z,97983.56
2022-09-24T11:01:22.018Z,97993.22
2022-09-24T11:04:21.110Z,97990.63
2022-09-24T11:07:15.720Z,97982.78
2022-09-24T11:09:53.026Z,97984.00
2022-09-24T11:12:31.513Z,97981.72
2022-09-24T11:15:20.343Z,97981.00
2022-09-24T11:18:07.270Z,97987.53
2022-09-24T11:20:40.197Z,97987.50
2022-09-24T11:23:36.123Z,97983.28
2022-09-24T11:26:18.614Z,97985.81
2022-09-24T11:29:09.214Z,97986.53
2022-09-24T11:31:45.212Z,97991.81
2022-09-24T11:34:29.927Z,97976.75
2022-09-24T11:37:12.912Z,97973.13
2022-09-24T11:40:00.181Z,97968.84
2022-09-24T11:42:36.203Z,97971.25
2022-09-24T11:45:31.349Z,97971.47
2022-09-24T11:48:24.210Z,97968.34
2022-09-24T11:51:03.995Z,97972.94
2022-09-24T11:53:42.113Z,97963.94
2022-09-24T11:56:18.900Z,97957.44
2022-09-24T11:58:52.772Z,97953.75
2022-09-24T12:01:26.518Z,97957.72
2022-09-24T12:04:04.269Z,97958.41
2022-09-24T12:06:39.495Z,97959.00
2022-09-24T12:09:17.236Z,97960.84
2022-09-24T12:11:53.185Z,97954.00
2022-09-24T12:14:26.872Z,97956.66
2022-09-24T12:17:01.916Z,97952.34
2022-09-24T12:19:40.861Z,97950.59
2022-09-24T12:22:13.504Z,97952.59
2022-09-24T12:24:49.101Z,97959.25
2022-09-24T12:27:22.207Z,97952.44
2022-09-24T12:30:11.195Z,97953.22
2022-09-24T12:32:57.761Z,97950.94
2022-09-24T12:36:00.687Z,97943.88
2022-09-24T12:38:36.718Z,97949.38
2022-09-24T12:41:27.309Z,97944.44
2022-09-24T12:44:02.908Z,97941.97
2022-09-24T12:46:38.186Z,97945.00
2022-09-24T12:49:18.464Z,97944.72
2022-09-24T12:51:51.318Z,97947.59
2022-09-24T12:54:28.682Z,97944.53
2022-09-24T12:57:10.313Z,97937.03
2022-09-24T12:59:51.612Z,97943.78
2022-09-24T13:02:24.307Z,97935.91
2022-09-24T13:05:16.192Z,97938.31
2022-09-24T13:07:59.603Z,97937.13
2022-09-24T13:10:32.028Z,97933.03
2022-09-24T13:13:04.469Z,97926.75
2022-09-24T13:15:37.364Z,97925.91
2022-09-24T13:18:24.390Z,97925.97
2022-09-24T13:21:03.687Z,97927.16
2022-09-24T13:23:47.740Z,97933.72
2022-09-24T13:26:33.841Z,97922.59
2022-09-24T13:29:05.875Z,97930.13
2022-09-24T13:31:47.953Z,97934.47
2022-09-24T13:34:23.065Z,97921.06
2022-09-24T13:37:00.949Z,97929.00
2022-09-24T13:39:38.346Z,97934.09
2022-09-24T13:42:17.433Z,97935.31
2022-09-24T13:44:50.259Z,97926.84
2022-09-24T13:47:30.314Z,97920.97
2022-09-24T13:50:10.568Z,97923.28
2022-09-24T13:52:45.107Z,97913.81
2022-09-24T13:55:23.407Z,97917.31
2022-09-24T13:57:53.379Z,97922.00
2022-09-24T14:00:27.740Z,97917.94
2022-09-24T14:03:01.261Z,97920.44
2022-09-24T14:05:31.869Z,97919.38
2022-09-24T14:08:06.575Z,97920.16
2022-09-24T14:10:40.197Z,97925.34
2022-09-24T14:13:21.772Z,97917.78
2022-09-24T14:15:59.682Z,97912.25
2022-09-24T14:18:31.027Z,97908.84
2022-09-24T14:21:07.601Z,97904.63
2022-09-24T14:23:42.642Z,97902.94
2022-09-24T14:26:25.612Z,97899.72
2022-09-24T14:28:56.236Z,97907.22
2022-09-24T14:31:26.515Z,97892.50
2022-09-24T14:33:56.468Z,97899.66
2022-09-24T14:36:29.416Z,97906.16
2022-09-24T14:39:05.692Z,97901.78
2022-09-24T14:41:39.673Z,97903.38
2022-09-24T14:44:16.483Z,97902.91
2022-09-24T14:46:52.947Z,97905.56
2022-09-24T14:49:26.473Z,97901.19
2022-09-24T14:51:58.707Z,97898.94
2022-09-24T14:54:35.766Z,97893.84
2022-09-24T14:57:27.198Z,97895.47
2022-09-24T14:59:56.968Z,97894.66
2022-09-24T15:02:32.961Z,97898.19
2022-09-24T15:05:06.686Z,97897.34
2022-09-24T15:07:38.279Z,97898.28
2022-09-24T15:10:09.319Z,97897.22
2022-09-24T15:12:45.243Z,97905.91
2022-09-24T15:15:32.209Z,97901.56
2022-09-24T15:18:01.937Z,97898.03
2022-09-24T15:20:31.725Z,97899.19
2022-09-24T15:23:02.037Z,97894.53
2022-09-24T15:25:32.508Z,97898.34
2022-09-24T15:28:05.692Z,97888.94
2022-09-24T15:30:35.956Z,97891.31
2022-09-24T15:33:11.014Z,97890.09
2022-09-24T15:35:40.858Z,97886.19
2022-09-24T15:38:17.357Z,97891.00
2022-09-24T15:40:47.407Z,97885.44
2022-09-24T15:43:23.805Z,97876.31
2022-09-24T15:45:54.933Z,97874.06
2022-09-24T15:48:24.839Z,97866.28
2022-09-24T15:50:54.564Z,97871.50
2022-09-24T15:53:27.472Z,97874.56
2022-09-24T15:55:59.249Z,97876.44
2022-09-24T15:58:31.927Z,97876.38
2022-09-24T16:01:01.634Z,97882.72
2022-09-24T16:03:33.523Z,97878.63
2022-09-24T16:06:03.550Z,97886.16
2022-09-24T16:08:33.314Z,97881.03
2022-09-24T16:11:06.873Z,97875.53
2022-09-24T16:13:41.144Z,97878.16
2022-09-24T16:16:11.772Z,97884.34
2022-09-24T16:18:41.553Z,97875.78
2022-09-24T16:21:12.400Z,97870.78
2022-09-24T16:23:42.171Z,97880.69
2022-09-24T16:26:12.293Z,97884.34
2022-09-24T16:28:44.626Z,97882.41
2022-09-24T16:31:14.541Z,97888.78
2022-09-24T16:33:44.328Z,97891.59
2022-09-24T16:36:15.184Z,97894.81
2022-09-24T16:38:45.100Z,97881.78
2022-09-24T16:41:14.883Z,97891.50
2022-09-24T16:43:47.274Z,97885.25
2022-09-24T16:46:20.640Z,97882.56
2022-09-24T16:48:52.601Z,97880.31
2022-09-24T16:51:22.656Z,97889.03
2022-09-24T16:53:56.948Z,97880.31
2022-09-24T16:56:27.066Z,97887.38
2022-09-24T16:58:59.570Z,97880.19
2022-09-24T17:01:29.509Z,97879.75
2022-09-24T17:04:01.082Z,97882.25
2022-09-24T17:06:34.196Z,97888.97
2022-09-24T17:09:16.698Z,97874.84
2022-09-24T17:11:48.601Z,97877.22
2022-09-24T17:14:21.283Z,97879.56
2022-09-24T17:16:51.015Z,97877.25
2022-09-24T17:19:20.721Z,97879.22
2022-09-24T17:21:50.615Z,97874.19
2022-09-24T17:24:21.956Z,97871.81
2022-09-24T17:26:52.116Z,97873.41
2022-09-24T17:29:30.429Z,97877.63
2022-09-24T17:32:01.288Z,97882.75
2022-09-24T17:34:31.030Z,97881.63
2022-09-24T17:37:00.823Z,97882.44
2022-09-24T17:39:31.004Z,97879.22
2022-09-24T17:42:00.991Z,97890.22
2022-09-24T17:44:33.422Z,97889.41
2022-09-24T17:47:03.692Z,97892.63
2022-09-24T17:49:34.052Z,97894.91
2022-09-24T17:52:04.570Z,97900.78
2022-09-24T17:54:34.316Z,97904.00
2022-09-24T17:57:04.066Z,97900.84
2022-09-24T17:59:36.383Z,97905.91
2022-09-24T18:02:06.933Z,97902.00
2022-09-24T18:04:38.529Z,97904.75
2022-09-24T18:07:08.329Z,97894.25
2022-09-24T18:09:37.985Z,97913.84
2022-09-24T18:12:08.054Z,97918.19
2022-09-24T18:14:40.613Z,97917.41
2022-09-24T18:17:10.648Z,97912.69
2022-09-24T18:19:40.363Z,97921.28
2022-09-24T18:22:11.464Z,97918.25
2022-09-24T18:24:44.734Z,97918.72
2022-09-24T18:27:16.183Z,97916.78
2022-09-24T18:29:48.533Z,97914.88
2022-09-24T18:32:19.489Z,97913.66
2022-09-24T18:34:49.161Z,97915.88
2022-09-24T18:37:18.856Z,97915.50
2022-09-24T18:39:48.561Z,97923.78
2022-09-24T18:42:18.231Z,97923.75
2022-09-24T18:44:50.937Z,97922.19
2022-09-24T18:47:20.898Z,97924.22
2022-09-24T18:49:50.615Z,97925.34
2022-09-24T18:52:20.368Z,97928.53
2022-09-24T18:54:50.630Z,97932.09
2022-09-24T18:57:20.543Z,97928.53
2022-09-24T18:59:52.989Z,97931.25
2022-09-24T19:02:25.349Z,97946.22
2022-09-24T19:04:55.227Z,97938.78
2022-09-24T19:07:25.049Z,97941.22
2022-09-24T19:09:54.689Z,97935.00
2022-09-24T19:12:26.214Z,97933.16
2022-09-24T19:15:00.519Z,97927.66
2022-09-24T19:17:30.226Z,97926.41
2022-09-24T19:19:59.925Z,97920.94
2022-09-24T19:22:29.735Z,97920.84
2022-09-24T19:24:59.397Z,97931.03
2022-09-24T19:27:29.262Z,97924.28
2022-09-24T19:30:01.662Z,97929.41
2022-09-24T19:32:32.058Z,97928.81
2022-09-24T19:35:01.736Z,97928.44
2022-09-24T19:37:31.394Z,97924.91
2022-09-24T19:40:01.268Z,97931.16
2022-09-24T19:42:30.877Z,97933.44
2022-09-24T19:45:05.939Z,97927.56
2022-09-24T19:47:36.008Z,97924.91
2022-09-24T19:50:06.044Z,97936.66
2022-09-24T19:52:35.712Z,97939.81
2022-09-24T19:55:05.475Z,97936.66
2022-09-24T19:57:36.294Z,97931.56
2022-09-24T20:00:10.076Z,97929.16
2022-09-24T20:02:39.920Z,97936.66
2022-09-24T20:05:10.647Z,97931.22
2022-09-24T20:07:42.088Z,97925.28
2022-09-24T20:10:13.040Z,97919.88
2022-09-24T20:12:46.726Z,97911.59
2022-09-24T20:15:19.273Z,97914.00
2022-09-24T20:17:48.988Z,97912.06
2022-09-24T20:20:19.025Z,97914.00
2022-09-24T20:22:48.686Z,97914.69
2022-09-24T20:25:18.419Z,97912.50
2022-09-24T20:27:51.774Z,97918.78
2022-09-24T20:30:24.354Z,97921.16
2022-09-24T20:32:54.133Z,97922.69
2022-09-24T20:35:23.778Z,97926.56
2022-09-24T20:37:53.423Z,97927.38
2022-09-24T20:40:23.155Z,97926.72
2022-09-24T20:42:52.857Z,97930.66
2022-09-24T20:45:25.175Z,97929.91
2022-09-24T20:47:54.852Z,97931.38
2022-09-24T20:50:24.593Z,97924.25
2022-09-24T20:52:54.348Z,97928.25
2022-09-24T20:55:25.096Z,97927.56
2022-09-24T20:57:55.145Z,97931.03
2022-09-24T21:00:34.099Z,97937.00
2022-09-24T21:03:19.924Z,97931.44
2022-09-24T21:05:54.257Z,97922.38
2022-09-24T21:08:24.112Z,97913.31
2022-09-24T21:11:03.259Z,97916.41
2022-09-24T21:13:34.089Z,97922.59
2022-09-24T21:16:06.879Z,97917.19
2022-09-24T21:18:40.422Z,97920.72
2022-09-24T21:21:16.265Z,97920.31
2022-09-24T21:23:47.144Z,97927.41
2022-09-24T21:26:19.022Z,97931.00
2022-09-24T21:28:49.856Z,97930.56
2022-09-24T21:31:23.853Z,97934.09
2022-09-24T21:33:55.636Z,97934.91
2022-09-24T21:36:28.814Z,97933.75
2022-09-24T21:39:00.288Z,97943.16
2022-09-24T21:41:31.952Z,97941.19
2022-09-24T21:44:02.357Z,97936.88
2022-09-24T21:46:35.796Z,97933.72
2022-09-24T21:49:05.913Z,97943.16
2022-09-24T21:51:35.582Z,97940.06
2022-09-24T21:54:07.028Z,97936.94
2022-09-24T21:56:38.118Z,97944.00
2022-09-24T21:59:29.153Z,97940.47
2022-09-24T22:02:01.755Z,97939.66
2022-09-24T22:04:33.483Z,97941.56
2022-09-24T22:07:03.386Z,97936.84
2022-09-24T22:09:33.845Z,97937.22
2022-09-24T22:12:04.978Z,97929.34
2022-09-24T22:14:35.473Z,97938.44
2022-09-24T22:17:07.823Z,97936.16
2022-09-24T22:19:37.762Z,97932.94
2022-09-24T22:22:07.499Z,97935.25
2022-09-24T22:24:37.184Z,97939.16
2022-09-24T22:27:07.442Z,97938.84
2022-09-24T22:29:37.141Z,97937.31
2022-09-24T22:32:09.801Z,97934.63
2022-09-24T22:34:51.901Z,97936.97
2022-09-24T22:37:22.949Z,97942.81
2022-09-24T22:39:52.586Z,97944.00
2022-09-24T22:42:22.271Z,97932.31
2022-09-24T22:44:52.005Z,97936.56
2022-09-24T22:47:24.359Z,97931.47
2022-09-24T22:49:54.221Z,97932.63
2022-09-24T22:52:24.069Z,97942.84
2022-09-24T22:54:53.813Z,97940.09
2022-09-24T22:57:23.503Z,97942.06
2022-09-24T22:59:53.312Z,97936.22
2022-09-24T23:02:25.586Z,97930.03
2022-09-24T23:04:55.413Z,97929.19
2022-09-24T23:07:25.712Z,97925.28
2022-09-24T23:09:55.450Z,97928.78
2022-09-24T23:12:25.197Z,97925.38
2022-09-24T23:14:55.799Z,97919.84
2022-09-24T23:17:28.355Z,97915.13
2022-09-24T23:19:58.113Z,97924.53
2022-09-24T23:22:27.789Z,97922.13
2022-09-24T23:24:57.812Z,97934.25
2022-09-24T23:27:27.514Z,97933.47
2022-09-24T23:29:57.303Z,97929.53
2022-09-24T23:32:32.026Z,97935.44
2022-09-24T23:35:02.055Z,97933.13
2022-09-24T23:37:31.895Z,97927.63
2022-09-24T23:40:01.642Z,97928.44
2022-09-24T23:42:31.515Z,97923.31
2022-09-24T23:45:01.210Z,97924.03
2022-09-24T23:47:36.157Z,97924.88
2022-09-24T23:50:06.429Z,97924.50
2022-09-24T23:52:36.177Z,97928.34
2022-09-24T23:55:05.859Z,97928.34
2022-09-24T23:57:35.595Z,97926.78
